createdAt,value
2019-01-08T05:43:11.897Z,7.40
2019-01-08T05:45:41.054Z,8.30
2019-01-08T05:48:10.237Z,7.17
2019-01-08T05:50:39.610Z,7.03
2019-01-08T05:53:08.802Z,6.07
2019-01-08T05:55:37.968Z,6.30
2019-01-08T05:58:07.378Z,6.00
2019-01-08T06:00:36.549Z,6.43
2019-01-08T06:03:05.827Z,6.93
2019-01-08T06:05:35.200Z,6.73
2019-01-08T06:08:04.354Z,7.10
2019-01-08T06:10:33.592Z,6.33
2019-01-08T06:13:02.744Z,6.47
2019-01-08T06:15:31.929Z,5.93
2019-01-08T06:18:01.392Z,6.53
2019-01-08T06:20:30.588Z,6.07
2019-01-08T06:22:59.776Z,6.63
2019-01-08T06:25:28.969Z,5.83
2019-01-08T06:27:58.127Z,5.87
2019-01-08T06:30:27.372Z,5.77
2019-01-08T06:32:56.541Z,5.87
2019-01-08T06:35:25.724Z,5.20
2019-01-08T06:37:55.041Z,5.73
2019-01-08T06:40:24.352Z,5.13
2019-01-08T06:42:53.536Z,5.07
2019-01-08T06:45:22.801Z,4.73
2019-01-08T06:47:52.037Z,5.50
2019-01-08T06:50:21.192Z,4.60
2019-01-08T06:52:50.343Z,5.10
2019-01-08T06:55:19.504Z,4.40
2019-01-08T06:57:48.653Z,4.27
2019-01-08T07:00:18.927Z,4.37
2019-01-08T07:02:48.119Z,4.40
2019-01-08T07:05:17.263Z,4.27
2019-01-08T07:07:46.414Z,4.10
2019-01-08T07:10:15.575Z,3.20
2019-01-08T07:12:44.824Z,3.40
2019-01-08T07:15:13.983Z,3.17
2019-01-08T07:17:43.155Z,3.30
2019-01-08T07:20:12.322Z,2.97
2019-01-08T07:22:41.509Z,3.17
2019-01-08T07:25:10.670Z,2.77
2019-01-08T07:27:39.839Z,3.00
2019-01-08T07:30:08.997Z,2.60
2019-01-08T07:32:38.152Z,2.63
2019-01-08T07:35:07.541Z,2.73
2019-01-08T07:37:36.779Z,3.20
2019-01-08T07:40:06.787Z,2.97
2019-01-08T07:42:36.017Z,3.10
2019-01-08T07:45:05.940Z,3.00
2019-01-08T07:47:35.251Z,2.93
2019-01-08T07:50:04.961Z,3.03
2019-01-08T07:52:34.155Z,2.70
2019-01-08T07:55:03.438Z,3.20
2019-01-08T07:57:32.706Z,2.93
2019-01-08T08:00:02.001Z,3.20
2019-01-08T08:02:31.318Z,3.03
2019-01-08T08:05:01.066Z,2.87
2019-01-08T08:07:30.435Z,3.20
2019-01-08T08:09:59.780Z,3.07
2019-01-08T08:12:29.018Z,3.20
2019-01-08T08:14:58.263Z,3.10
2019-01-08T08:17:27.505Z,3.37
2019-01-08T08:19:56.732Z,3.10
2019-01-08T08:22:25.922Z,3.07
2019-01-08T08:24:56.024Z,3.37
2019-01-08T08:27:27.022Z,3.50
2019-01-08T08:29:56.188Z,3.03
2019-01-08T08:32:25.383Z,3.20
2019-01-08T08:34:54.906Z,3.13
2019-01-08T08:37:24.115Z,3.40
2019-01-08T08:39:53.331Z,3.60
2019-01-08T08:42:23.045Z,3.30
2019-01-08T08:44:52.593Z,3.30
2019-01-08T08:47:21.856Z,3.10
2019-01-08T08:49:51.054Z,3.50
2019-01-08T08:52:20.273Z,3.20
2019-01-08T08:54:49.479Z,3.67
2019-01-08T08:57:18.809Z,3.33
2019-01-08T08:59:48.104Z,2.87
2019-01-08T09:02:17.303Z,2.90
2019-01-08T09:04:46.466Z,3.23
2019-01-08T09:07:15.833Z,3.40
2019-01-08T09:09:45.078Z,3.43
2019-01-08T09:12:15.335Z,3.40
2019-01-08T09:14:44.832Z,3.43
2019-01-08T09:17:13.990Z,3.63
2019-01-08T09:19:43.229Z,3.27
2019-01-08T09:22:12.384Z,3.37
2019-01-08T09:24:43.836Z,3.53
2019-01-08T09:27:13.015Z,3.13
2019-01-08T09:29:42.327Z,3.50
2019-01-08T09:32:11.548Z,3.40
2019-01-08T09:34:43.574Z,3.80
2019-01-08T09:37:12.822Z,3.97
2019-01-08T09:39:42.073Z,3.50
2019-01-08T09:42:11.227Z,3.80
2019-01-08T09:44:40.474Z,4.03
2019-01-08T09:47:09.691Z,4.07
2019-01-08T09:49:38.894Z,4.33
2019-01-08T09:52:08.103Z,4.67
2019-01-08T09:54:37.271Z,4.73
2019-01-08T09:57:06.528Z,4.40
2019-01-08T09:59:35.745Z,3.90
2019-01-08T10:02:05.039Z,4.37
2019-01-08T10:04:34.277Z,4.43
2019-01-08T10:07:03.631Z,4.47
2019-01-08T10:09:32.805Z,4.23
2019-01-08T10:12:02.007Z,4.30
2019-01-08T10:14:31.226Z,4.40
2019-01-08T10:17:00.473Z,4.60
2019-01-08T10:19:29.840Z,4.67
2019-01-08T10:21:59.002Z,4.73
2019-01-08T10:24:28.195Z,4.87
2019-01-08T10:26:57.360Z,4.80
2019-01-08T10:29:26.611Z,4.80
2019-01-08T10:31:55.748Z,4.27
2019-01-08T10:34:25.100Z,4.33
2019-01-08T10:36:54.608Z,4.10
2019-01-08T10:39:23.881Z,4.03
2019-01-08T10:41:53.072Z,3.80
2019-01-08T10:44:22.308Z,3.47
2019-01-08T10:46:51.565Z,3.37
2019-01-08T10:49:20.822Z,3.07
2019-01-08T10:51:50.235Z,2.87
2019-01-08T10:54:19.532Z,3.07
2019-01-08T10:56:48.772Z,2.90
2019-01-08T10:59:17.975Z,3.10
2019-01-08T11:01:47.481Z,3.17
2019-01-08T11:04:16.728Z,3.10
2019-01-08T11:06:45.915Z,3.20
2019-01-08T11:09:15.082Z,3.20
2019-01-08T11:11:44.525Z,3.30
2019-01-08T11:14:13.691Z,3.27
2019-01-08T11:16:42.916Z,5.67
2019-01-08T11:19:12.267Z,3.20
2019-01-08T11:21:41.465Z,3.57
2019-01-08T11:24:10.662Z,3.20
2019-01-08T11:26:40.114Z,3.30
2019-01-08T11:29:09.341Z,3.57
2019-01-08T11:31:38.808Z,3.83
2019-01-08T11:34:08.200Z,3.40
2019-01-08T11:36:37.442Z,3.50
2019-01-08T11:39:07.554Z,2.87
2019-01-08T11:41:36.955Z,3.27
2019-01-08T11:44:06.140Z,3.20
2019-01-08T11:46:35.311Z,2.63
2019-01-08T11:49:04.688Z,2.77
2019-01-08T11:51:33.973Z,3.00
2019-01-08T11:54:03.209Z,3.30
2019-01-08T11:56:32.382Z,3.17
2019-01-08T11:59:01.533Z,3.03
2019-01-08T12:01:31.032Z,3.10
2019-01-08T12:04:00.180Z,2.80
2019-01-08T12:06:29.419Z,3.60
2019-01-08T12:08:58.721Z,3.27
2019-01-08T12:11:29.453Z,3.40
2019-01-08T12:13:58.613Z,3.37
2019-01-08T12:16:27.834Z,3.60
2019-01-08T12:18:57.042Z,4.67
2019-01-08T12:21:26.254Z,2.63
2019-01-08T12:23:55.451Z,2.83
2019-01-08T12:26:24.684Z,3.07
2019-01-08T12:28:54.155Z,2.73
2019-01-08T12:31:23.313Z,2.97
2019-01-08T12:33:52.631Z,2.80
2019-01-08T12:36:21.790Z,2.60
2019-01-08T12:38:50.954Z,2.67
2019-01-08T12:41:20.177Z,2.43
2019-01-08T12:43:49.707Z,2.60
2019-01-08T12:46:19.060Z,2.33
2019-01-08T12:48:48.395Z,2.60
2019-01-08T12:51:17.738Z,2.30
2019-01-08T12:53:47.050Z,2.50
2019-01-08T12:56:16.238Z,2.60
2019-01-08T12:58:45.433Z,2.10
2019-01-08T13:01:14.582Z,2.60
2019-01-08T13:03:43.755Z,2.47
2019-01-08T13:06:13.049Z,2.50
2019-01-08T13:08:42.287Z,2.23
2019-01-08T13:11:11.520Z,2.50
2019-01-08T13:13:40.698Z,2.30
2019-01-08T13:16:09.935Z,2.50
2019-01-08T13:18:40.289Z,2.60
2019-01-08T13:21:10.709Z,2.43
2019-01-08T13:23:39.899Z,2.50
2019-01-08T13:26:09.122Z,2.60
2019-01-08T13:28:38.342Z,2.57
2019-01-08T13:31:07.641Z,2.53
2019-01-08T13:33:37.533Z,2.50
2019-01-08T13:36:08.903Z,2.43
2019-01-08T13:38:38.138Z,2.23
2019-01-08T13:41:08.775Z,2.40
2019-01-08T13:43:38.379Z,2.30
2019-01-08T13:46:07.533Z,2.20
2019-01-08T13:48:36.739Z,2.00
2019-01-08T13:51:05.895Z,2.20
2019-01-08T13:53:35.071Z,2.37
2019-01-08T13:56:04.220Z,2.03
2019-01-08T13:58:33.390Z,1.80
2019-01-08T14:01:02.731Z,2.30
2019-01-08T14:03:31.936Z,2.43
2019-01-08T14:06:01.247Z,2.57
2019-01-08T14:08:30.441Z,2.57
2019-01-08T14:10:59.610Z,10.53
2019-01-08T14:13:29.096Z,7.73
2019-01-08T14:15:58.442Z,18.10
2019-01-08T14:18:27.722Z,2.17
2019-01-08T14:20:57.002Z,9.37
2019-01-08T14:23:26.278Z,2.30
2019-01-08T14:25:55.564Z,9.20
2019-01-08T14:28:24.860Z,3.93
2019-01-08T14:30:57.811Z,1.70
2019-01-08T14:33:27.120Z,1.77
2019-01-08T14:35:56.434Z,1.80
2019-01-08T14:38:25.647Z,2.20
2019-01-08T14:40:54.852Z,1.50
2019-01-08T14:43:24.046Z,1.73
2019-01-08T14:45:53.239Z,1.83
2019-01-08T14:48:22.405Z,1.87
2019-01-08T14:50:51.677Z,1.60
2019-01-08T14:53:20.960Z,1.40
2019-01-08T14:55:50.188Z,1.40
2019-01-08T14:58:19.340Z,1.40
2019-01-08T15:00:48.501Z,2.00
2019-01-08T15:03:17.768Z,1.77
2019-01-08T15:05:46.924Z,2.80
2019-01-08T15:08:16.112Z,2.30
2019-01-08T15:10:45.299Z,1.80
2019-01-08T15:13:14.534Z,1.97
2019-01-08T15:15:43.820Z,3.30
2019-01-08T15:18:13.002Z,1.90
2019-01-08T15:20:42.329Z,1.80
2019-01-08T15:23:11.570Z,1.90
2019-01-08T15:25:40.745Z,1.70
2019-01-08T15:28:09.977Z,2.30
2019-01-08T15:30:39.213Z,1.90
2019-01-08T15:33:08.876Z,1.93
2019-01-08T15:35:38.133Z,2.03
2019-01-08T15:38:07.295Z,1.70
2019-01-08T15:40:36.450Z,1.90
2019-01-08T15:43:05.665Z,1.67
2019-01-08T15:45:35.061Z,1.70
2019-01-08T15:48:05.332Z,1.90
2019-01-08T15:50:35.007Z,1.70
2019-01-08T15:53:04.180Z,2.00
2019-01-08T15:55:33.491Z,1.97
2019-01-08T15:58:02.769Z,1.93
2019-01-08T16:00:32.057Z,1.80
2019-01-08T16:03:07.274Z,1.67
2019-01-08T16:05:32.144Z,1.70
2019-01-08T16:08:01.347Z,1.73
2019-01-08T16:10:31.809Z,1.50
2019-01-08T16:13:01.031Z,1.60
2019-01-08T16:15:30.291Z,2.10
2019-01-08T16:17:59.461Z,1.70
2019-01-08T16:20:28.698Z,1.90
2019-01-08T16:22:57.883Z,1.90
2019-01-08T16:25:27.083Z,1.80
2019-01-08T16:27:57.912Z,2.10
2019-01-08T16:30:27.183Z,1.90
2019-01-08T16:32:56.645Z,1.80
2019-01-08T16:35:26.064Z,2.17
2019-01-08T16:37:55.313Z,1.80
2019-01-08T16:40:24.484Z,1.63
2019-01-08T16:42:53.836Z,1.80
2019-01-08T16:45:23.805Z,1.90
2019-01-08T16:47:53.047Z,2.20
2019-01-08T16:50:22.239Z,4.47
2019-01-08T16:52:51.475Z,3.03
2019-01-08T16:55:20.720Z,3.00
2019-01-08T16:57:50.001Z,2.83
2019-01-08T17:00:19.239Z,2.95
2019-01-08T17:02:48.399Z,2.43
2019-01-08T17:05:17.671Z,2.33
2019-01-08T17:07:46.846Z,2.67
2019-01-08T17:10:16.139Z,2.00
2019-01-08T17:12:45.540Z,2.67
2019-01-08T17:15:14.752Z,2.60
2019-01-08T17:17:43.952Z,2.40
2019-01-08T17:20:13.343Z,2.27
2019-01-08T17:22:42.721Z,2.63
2019-01-08T17:25:11.980Z,2.27
2019-01-08T17:27:41.122Z,2.10
2019-01-08T17:30:13.166Z,2.37
2019-01-08T17:32:42.571Z,2.37
2019-01-08T17:35:12.005Z,2.30
2019-01-08T17:37:43.608Z,2.30
2019-01-08T17:40:17.434Z,2.57
2019-01-08T17:42:46.940Z,2.10
2019-01-08T17:45:18.095Z,2.20
2019-01-08T17:47:47.314Z,2.80
2019-01-08T17:50:21.344Z,2.40
2019-01-08T17:52:51.012Z,2.43
2019-01-08T17:55:20.352Z,2.20
2019-01-08T17:57:49.748Z,2.33
2019-01-08T18:00:19.480Z,2.20
2019-01-08T18:02:54.782Z,2.37
2019-01-08T18:05:31.839Z,2.50
2019-01-08T18:08:01.025Z,2.17
2019-01-08T18:10:30.273Z,2.27
2019-01-08T18:12:59.573Z,2.50
2019-01-08T18:15:28.863Z,2.73
2019-01-08T18:17:58.127Z,2.50
2019-01-08T18:20:27.321Z,2.30
2019-01-08T18:22:56.644Z,2.90
2019-01-08T18:25:25.836Z,2.73
2019-01-08T18:27:55.073Z,2.40
2019-01-08T18:30:24.247Z,2.40
2019-01-08T18:32:53.635Z,2.40
2019-01-08T18:35:22.913Z,2.50
2019-01-08T18:37:52.095Z,2.53
2019-01-08T18:40:21.699Z,2.80
2019-01-08T18:42:52.963Z,2.50
2019-01-08T18:45:22.247Z,2.40
2019-01-08T18:47:51.981Z,2.60
2019-01-08T18:50:23.944Z,2.60
2019-01-08T18:52:53.195Z,2.30
2019-01-08T18:55:22.434Z,2.60
2019-01-08T18:57:51.615Z,2.60
2019-01-08T19:00:20.866Z,2.90
2019-01-08T19:02:50.320Z,2.60
2019-01-08T19:05:20.321Z,3.13
2019-01-08T19:07:49.523Z,3.33
2019-01-08T19:10:18.805Z,2.67
2019-01-08T19:12:48.228Z,4.10
2019-01-08T19:15:17.459Z,3.70
